Time;durP1;ratioP1;P1;durP2;ratioP2;P2;SDS_P1;SDS_P2;PMS_P1;PMS_P2;Temp;Humidity;BMP_temperature;BMP_pressure;BME280_temperature;BME280_humidity;BME280_pressure;Samples;Min_cycle;Max_cycle;Signal;HPM_P1;HPM_P2
2023/02/19 00:01:32;;;;;;;11.18;5.05;;;5.20;99.90;;;;;;5035811;28;20044;-74
2023/02/19 00:04:04;;;;;;;11.52;4.40;;;5.20;99.90;;;;;;5034565;28;20068;-74
2023/02/19 00:06:31;;;;;;;12.95;5.13;;;5.20;99.90;;;;;;5013955;28;20550;-73
2023/02/19 00:08:57;;;;;;;9.95;4.35;;;5.20;99.90;;;;;;5031744;28;20033;-73
2023/02/19 00:11:26;;;;;;;9.88;3.25;;;5.20;99.90;;;;;;5038469;28;20550;-74
2023/02/19 00:13:54;;;;;;;7.72;4.22;;;5.20;99.90;;;;;;5036316;28;20049;-73
2023/02/19 00:16:24;;;;;;;14.30;4.50;;;5.20;99.90;;;;;;5034662;28;20079;-73
2023/02/19 00:18:52;;;;;;;9.68;4.20;;;5.20;99.90;;;;;;5057218;28;20021;-74
2023/02/19 00:21:18;;;;;;;9.68;4.60;;;5.20;99.90;;;;;;5035813;28;20025;-74
2023/02/19 00:23:51;;;;;;;10.23;5.05;;;5.20;99.90;;;;;;5038891;28;20581;-73
2023/02/19 00:26:18;;;;;;;9.98;4.72;;;5.10;99.90;;;;;;5020426;28;20025;-74
2023/02/19 00:28:45;;;;;;;9.43;4.20;;;5.20;99.90;;;;;;5038778;28;20439;-74
2023/02/19 00:31:25;;;;;;;11.85;4.57;;;5.20;99.90;;;;;;5036502;28;20045;-73
2023/02/19 00:33:53;;;;;;;12.30;4.78;;;5.20;99.90;;;;;;5035966;28;20076;-74
2023/02/19 00:36:19;;;;;;;10.93;4.32;;;5.20;99.90;;;;;;5021914;28;20455;-73
2023/02/19 00:38:45;;;;;;;11.80;4.22;;;5.10;99.90;;;;;;5040548;28;20025;-73
2023/02/19 00:41:19;;;;;;;9.10;4.50;;;5.10;99.90;;;;;;5033091;28;20035;-73
2023/02/19 00:43:47;;;;;;;10.15;4.60;;;5.10;99.90;;;;;;5040896;28;20041;-74
2023/02/19 00:46:15;;;;;;;16.52;4.93;;;5.20;99.90;;;;;;5039381;28;20043;-73
2023/02/19 00:48:41;;;;;;;12.95;4.97;;;5.20;99.90;;;;;;5035427;28;20072;-74
2023/02/19 00:51:06;;;;;;;14.80;4.75;;;5.20;99.90;;;;;;5020924;28;20504;-74
2023/02/19 00:53:32;;;;;;;11.65;4.10;;;5.20;99.90;;;;;;5036202;28;20029;-73
2023/02/19 00:55:58;;;;;;;7.78;3.95;;;5.20;99.90;;;;;;5036198;28;20053;-73
2023/02/19 00:58:23;;;;;;;8.15;4.28;;;5.10;99.90;;;;;;5035294;28;20021;-73
2023/02/19 01:00:49;;;;;;;13.82;5.18;;;5.20;99.90;;;;;;5022960;28;20393;-73
2023/02/19 01:03:15;;;;;;;10.68;4.82;;;5.20;99.90;;;;;;5036080;28;20080;-72
2023/02/19 01:05:40;;;;;;;10.77;5.43;;;5.20;99.90;;;;;;5035397;28;20033;-73
2023/02/19 01:08:06;;;;;;;12.55;5.35;;;5.10;99.90;;;;;;5037040;28;20500;-74
2023/02/19 01:10:32;;;;;;;11.07;5.85;;;5.10;99.90;;;;;;5042947;28;20033;-74
2023/02/19 01:12:57;;;;;;;15.13;6.47;;;5.10;99.90;;;;;;5019988;28;20044;-72
2023/02/19 01:15:23;;;;;;;18.73;6.78;;;5.00;99.90;;;;;;5037994;28;20032;-73
2023/02/19 01:17:49;;;;;;;16.45;7.47;;;5.00;99.90;;;;;;5036152;28;20302;-73
2023/02/19 01:20:14;;;;;;;23.42;8.38;;;5.00;99.90;;;;;;5037378;28;20032;-73
2023/02/19 01:22:40;;;;;;;17.63;9.38;;;5.00;99.90;;;;;;5036849;28;20041;-73
2023/02/19 01:25:06;;;;;;;17.70;9.15;;;5.00;99.90;;;;;;5023829;28;20022;-73
2023/02/19 01:27:32;;;;;;;18.92;9.48;;;5.00;99.90;;;;;;5018426;28;20112;-73
2023/02/19 01:29:57;;;;;;;21.20;10.48;;;5.00;99.90;;;;;;5037066;28;21489;-73
2023/02/19 01:32:23;;;;;;;19.10;10.60;;;4.90;99.90;;;;;;5037293;28;20040;-73
2023/02/19 01:34:49;;;;;;;22.70;10.15;;;5.00;99.90;;;;;;5041898;28;20576;-74
2023/02/19 01:37:14;;;;;;;15.85;9.60;;;5.00;99.90;;;;;;5036684;28;20032;-73
2023/02/19 01:39:40;;;;;;;19.00;9.45;;;5.00;99.90;;;;;;5035877;28;20093;-74
2023/02/19 01:42:13;;;;;;;16.52;7.95;;;4.90;99.90;;;;;;5038970;28;20489;-73
2023/02/19 01:44:39;;;;;;;18.70;6.97;;;4.90;99.90;;;;;;5037656;28;20476;-73
2023/02/19 01:47:05;;;;;;;11.40;5.85;;;4.90;99.90;;;;;;5038819;28;20038;-73
2023/02/19 01:49:36;;;;;;;10.13;5.30;;;4.90;99.90;;;;;;5039272;28;20123;-73
2023/02/19 01:52:15;;;;;;;11.43;3.90;;;4.90;99.90;;;;;;5038073;28;20040;-73
2023/02/19 01:54:42;;;;;;;13.15;3.40;;;4.80;99.90;;;;;;5037426;28;20120;-73
2023/02/19 01:57:15;;;;;;;10.18;3.78;;;4.80;99.90;;;;;;5036394;28;20142;-73
2023/02/19 01:59:42;;;;;;;10.77;3.95;;;4.80;99.90;;;;;;5033572;28;20033;-73
2023/02/19 02:02:08;;;;;;;6.35;2.88;;;4.80;99.90;;;;;;5036431;28;20025;-76
2023/02/19 02:04:34;;;;;;;8.63;3.20;;;4.70;99.90;;;;;;5021449;28;20040;-74
2023/02/19 02:10:18;;;;;;;9.50;3.25;;;4.70;99.90;;;;;;5034538;28;20052;-73
2023/02/19 02:12:34;;;;;;;11.15;4.10;;;4.70;99.90;;;;;;5034506;28;20460;-73
2023/02/19 02:15:00;;;;;;;11.65;3.78;;;4.60;99.90;;;;;;5039767;28;20052;-72
2023/02/19 02:17:32;;;;;;;11.30;3.40;;;4.70;99.90;;;;;;5032602;28;20452;-73
2023/02/19 02:20:36;;;;;;;9.32;3.75;;;4.60;99.90;;;;;;5040464;28;20029;-73
2023/02/19 02:23:23;;;;;;;11.02;3.92;;;4.60;99.90;;;;;;5028994;28;20557;-73
2023/02/19 02:26:07;;;;;;;7.30;3.17;;;4.60;99.90;;;;;;5036012;28;20116;-74
2023/02/19 02:29:08;;;;;;;10.75;3.42;;;4.60;99.90;;;;;;5035911;28;20033;-72
2023/02/19 02:32:11;;;;;;;9.48;3.55;;;4.60;99.90;;;;;;4983849;28;20045;-73
2023/02/19 02:34:57;;;;;;;11.13;3.83;;;4.60;99.90;;;;;;4961329;28;20039;-74
2023/02/19 02:37:25;;;;;;;8.55;3.58;;;4.60;99.90;;;;;;4992189;28;20031;-71
2023/02/19 02:39:52;;;;;;;9.85;3.92;;;4.50;99.90;;;;;;4993837;28;20037;-71
2023/02/19 02:42:27;;;;;;;9.32;3.78;;;4.50;99.90;;;;;;4989192;28;20057;-71
2023/02/19 02:47:52;;;;;;;9.32;3.13;;;4.40;99.90;;;;;;4994741;28;20084;-73
2023/02/19 02:50:23;;;;;;;9.57;2.65;;;4.40;99.90;;;;;;4985293;28;20029;-72
2023/02/19 02:55:44;;;;;;;7.65;2.55;;;4.30;99.90;;;;;;4994534;28;20038;-72
2023/02/19 02:58:11;;;;;;;;;;;4.30;99.90;;;;;;4982969;28;20141;-72
2023/02/19 03:03:27;;;;;;;12.45;3.28;;;4.30;99.90;;;;;;4994513;28;20037;-72
2023/02/19 03:05:59;;;;;;;12.30;2.80;;;4.30;99.90;;;;;;4994797;28;20022;-72
2023/02/19 03:08:38;;;;;;;13.98;3.03;;;4.30;99.90;;;;;;5022611;28;20061;-72
2023/02/19 03:19:41;;;;;;;10.13;2.92;;;4.30;99.90;;;;;;5034187;28;20087;-72
2023/02/19 03:22:23;;;;;;;12.85;2.95;;;4.30;99.90;;;;;;5036823;28;20151;-72
2023/02/19 03:27:45;;;;;;;10.52;2.65;;;4.40;99.90;;;;;;5036654;28;20079;-72
2023/02/19 03:30:16;;;;;;;10.52;2.53;;;4.40;99.90;;;;;;5017265;28;20044;-72
2023/02/19 03:32:56;;;;;;;11.38;2.40;;;4.40;99.90;;;;;;5036979;28;20542;-72
2023/02/19 03:35:26;;;;;;;11.90;2.63;;;4.30;99.90;;;;;;5037804;28;20062;-73
2023/02/19 03:38:22;;;;;;;9.05;2.35;;;4.30;99.90;;;;;;5036521;28;20041;-72
2023/02/19 03:41:01;;;;;;;8.63;1.80;;;4.20;99.90;;;;;;5036365;28;20239;-73
2023/02/19 03:43:54;;;;;;;7.55;2.75;;;4.20;99.90;;;;;;5038114;28;20417;-73
2023/02/19 03:46:40;;;;;;;7.35;2.05;;;4.20;99.90;;;;;;5034907;28;20413;-73
2023/02/19 03:49:25;;;;;;;7.70;1.70;;;4.30;99.90;;;;;;5039158;28;20555;-72
2023/02/19 03:52:00;;;;;;;6.15;1.80;;;4.30;99.90;;;;;;5041992;28;20452;-72
2023/02/19 03:54:48;;;;;;;8.63;2.00;;;4.30;99.90;;;;;;5038847;28;20028;-71
2023/02/19 03:57:21;;;;;;;6.43;1.75;;;4.30;99.90;;;;;;5040583;28;21254;-73
2023/02/19 04:00:11;;;;;;;6.65;2.03;;;4.30;99.90;;;;;;5036421;28;20045;-72
2023/02/19 04:03:01;;;;;;;7.53;2.05;;;4.30;99.90;;;;;;5023467;28;20040;-73
2023/02/19 04:05:34;;;;;;;7.53;2.20;;;4.40;99.90;;;;;;5041878;28;20030;-72
2023/02/19 04:08:08;;;;;;;6.38;2.47;;;4.40;99.90;;;;;;5038754;28;20025;-72
2023/02/19 04:10:36;;;;;;;6.47;2.63;;;4.40;99.90;;;;;;5040462;28;20029;-73
2023/02/19 04:13:11;;;;;;;10.75;3.28;;;4.40;99.90;;;;;;5036342;28;20036;-71
2023/02/19 04:15:41;;;;;;;8.20;2.65;;;4.40;99.90;;;;;;5038249;28;20046;-74
2023/02/19 04:18:13;;;;;;;7.87;3.23;;;4.40;99.90;;;;;;5037352;28;20036;-73
2023/02/19 04:20:43;;;;;;;9.30;3.42;;;4.40;99.90;;;;;;5037680;28;20091;-73
2023/02/19 04:23:09;;;;;;;12.35;3.72;;;4.40;99.90;;;;;;5038941;28;20072;-73
2023/02/19 04:25:38;;;;;;;10.35;4.10;;;4.40;99.90;;;;;;5040824;28;20033;-72
2023/02/19 04:28:04;;;;;;;9.02;3.35;;;4.30;99.90;;;;;;5039586;28;20100;-73
2023/02/19 04:30:30;;;;;;;8.48;3.30;;;4.30;99.90;;;;;;5038302;28;20032;-73
2023/02/19 04:32:55;;;;;;;9.85;2.88;;;4.30;99.90;;;;;;5027160;28;20025;-73
2023/02/19 04:35:21;;;;;;;8.27;3.25;;;4.30;99.90;;;;;;5039098;28;20068;-73
2023/02/19 04:37:47;;;;;;;11.63;3.58;;;4.30;99.90;;;;;;5039182;28;20115;-73
2023/02/19 04:40:14;;;;;;;7.60;2.50;;;4.30;99.90;;;;;;5038558;28;20052;-72
2023/02/19 04:42:39;;;;;;;6.28;2.30;;;4.30;99.90;;;;;;5038429;28;20075;-73
2023/02/19 04:45:05;;;;;;;6.32;2.83;;;4.30;99.90;;;;;;5037883;28;20576;-72
2023/02/19 04:47:32;;;;;;;11.20;2.45;;;4.30;99.90;;;;;;5038437;28;20113;-72
2023/02/19 04:49:57;;;;;;;8.10;2.45;;;4.30;99.90;;;;;;5037605;28;20029;-72
2023/02/19 04:52:23;;;;;;;9.75;2.42;;;4.30;99.90;;;;;;5034815;28;20505;-72
2023/02/19 04:54:50;;;;;;;7.78;2.55;;;4.20;99.90;;;;;;5036368;28;20041;-72
2023/02/19 04:57:16;;;;;;;12.70;2.55;;;4.20;99.90;;;;;;5038058;28;20094;-72
2023/02/19 04:59:41;;;;;;;11.43;3.38;;;4.20;99.90;;;;;;5037318;28;20480;-72
2023/02/19 05:02:07;;;;;;;8.18;2.50;;;4.20;99.90;;;;;;5038575;28;20060;-73
2023/02/19 05:04:33;;;;;;;9.80;3.42;;;4.20;99.90;;;;;;5038075;28;20025;-72
2023/02/19 05:06:58;;;;;;;8.05;2.72;;;4.20;99.90;;;;;;5037850;28;20032;-72
2023/02/19 05:09:24;;;;;;;10.25;2.33;;;4.20;99.90;;;;;;5035274;28;20029;-72
2023/02/19 05:11:50;;;;;;;8.20;2.50;;;4.10;99.90;;;;;;5035424;28;20013;-73
2023/02/19 05:14:16;;;;;;;5.20;2.70;;;4.10;99.90;;;;;;5037429;28;20033;-72
2023/02/19 05:16:41;;;;;;;12.13;3.05;;;4.10;99.90;;;;;;5038249;28;20159;-72
2023/02/19 05:19:10;;;;;;;9.18;2.95;;;4.00;99.90;;;;;;5037786;28;20035;-72
2023/02/19 05:21:36;;;;;;;12.30;3.17;;;4.10;99.90;;;;;;5039901;28;20037;-72
2023/02/19 05:24:02;;;;;;;9.38;2.47;;;4.00;99.90;;;;;;5034359;28;20103;-72
2023/02/19 05:26:30;;;;;;;9.48;2.40;;;4.00;99.90;;;;;;5037629;28;20174;-72
2023/02/19 05:28:55;;;;;;;7.63;2.00;;;4.00;99.90;;;;;;5036572;28;20520;-71
2023/02/19 05:31:22;;;;;;;7.97;2.20;;;4.00;99.90;;;;;;5037648;28;20021;-72
2023/02/19 05:33:50;;;;;;;6.80;2.10;;;4.00;99.90;;;;;;5040052;28;20033;-72
2023/02/19 05:36:16;;;;;;;9.10;2.38;;;3.90;99.90;;;;;;5037565;28;20397;-72
2023/02/19 05:38:42;;;;;;;8.00;2.60;;;3.90;99.90;;;;;;5036406;28;20033;-72
2023/02/19 05:41:20;;;;;;;6.13;1.98;;;3.80;99.90;;;;;;5036928;28;20067;-72
2023/02/19 05:43:47;;;;;;;10.00;2.20;;;3.80;99.90;;;;;;5054321;28;20045;-72
2023/02/19 05:46:15;;;;;;;9.13;2.40;;;3.80;99.90;;;;;;5037598;28;20035;-73
2023/02/19 05:48:41;;;;;;;7.38;2.30;;;3.90;99.90;;;;;;5034414;28;20037;-72
2023/02/19 05:51:13;;;;;;;10.88;2.40;;;3.90;99.90;;;;;;5037003;28;20108;-72
2023/02/19 05:53:39;;;;;;;13.25;2.05;;;3.80;99.90;;;;;;5037047;28;20028;-72
2023/02/19 05:56:25;;;;;;;9.73;2.10;;;3.80;99.90;;;;;;5037721;28;20029;-72
2023/02/19 05:58:52;;;;;;;5.85;2.08;;;3.80;99.90;;;;;;5037805;28;20037;-72
2023/02/19 06:01:20;;;;;;;6.80;1.88;;;3.80;99.90;;;;;;5052478;28;20033;-71
2023/02/19 06:03:46;;;;;;;8.25;2.20;;;3.80;99.90;;;;;;5036123;28;20041;-72
2023/02/19 06:06:16;;;;;;;11.45;2.63;;;3.80;99.90;;;;;;5038748;28;20021;-72
2023/02/19 06:08:42;;;;;;;8.27;2.50;;;3.80;99.90;;;;;;5038295;28;20581;-72
2023/02/19 06:11:08;;;;;;;7.40;1.70;;;3.80;99.90;;;;;;5038302;28;20029;-72
2023/02/19 06:13:34;;;;;;;8.77;2.08;;;3.80;99.90;;;;;;5036811;28;20033;-72
2023/02/19 06:16:04;;;;;;;7.25;2.08;;;3.70;99.90;;;;;;5035492;28;20059;-72
2023/02/19 06:18:30;;;;;;;9.23;2.33;;;3.70;99.90;;;;;;5034377;28;20028;-72
2023/02/19 06:21:07;;;;;;;11.52;2.35;;;3.70;99.90;;;;;;5038739;28;20090;-72
2023/02/19 06:23:33;;;;;;;9.93;2.42;;;3.70;99.90;;;;;;5036206;28;20047;-72
2023/02/19 06:26:11;;;;;;;6.80;2.33;;;3.70;99.90;;;;;;5037051;28;20022;-72
2023/02/19 06:28:38;;;;;;;9.60;2.60;;;3.70;99.90;;;;;;5034788;28;20241;-72
2023/02/19 06:31:05;;;;;;;8.73;1.80;;;3.70;99.90;;;;;;5032336;28;20477;-72
2023/02/19 06:33:31;;;;;;;7.82;2.65;;;3.90;99.90;;;;;;5036555;28;20044;-72
2023/02/19 06:35:59;;;;;;;7.53;2.13;;;6.30;99.90;;;;;;5015910;28;20048;-72
2023/02/19 06:38:25;;;;;;;8.07;2.13;;;5.30;99.90;;;;;;5042615;28;20106;-73
2023/02/19 06:40:51;;;;;;;5.45;1.98;;;4.70;99.90;;;;;;5036497;28;20884;-73
2023/02/19 06:43:16;;;;;;;9.27;2.40;;;4.50;99.90;;;;;;5032473;28;20037;-72
2023/02/19 06:45:42;;;;;;;8.23;1.70;;;4.20;99.90;;;;;;5035932;28;20484;-72
2023/02/19 06:48:08;;;;;;;6.10;1.92;;;4.00;99.90;;;;;;5037570;28;20056;-73
2023/02/19 06:50:34;;;;;;;10.27;2.25;;;4.00;99.90;;;;;;5036755;28;20041;-73
2023/02/19 06:53:00;;;;;;;10.23;2.92;;;3.90;99.90;;;;;;5033012;28;20028;-72
2023/02/19 06:55:26;;;;;;;10.82;2.50;;;3.80;99.90;;;;;;5036364;28;20396;-72
2023/02/19 06:57:52;;;;;;;7.80;2.72;;;3.80;99.90;;;;;;5018270;28;20037;-72
2023/02/19 07:00:17;;;;;;;8.70;2.60;;;3.80;99.90;;;;;;5033612;28;20412;-72
2023/02/19 07:02:43;;;;;;;6.00;2.58;;;3.70;99.90;;;;;;5035995;28;20387;-72
2023/02/19 07:05:09;;;;;;;7.78;3.20;;;3.70;99.90;;;;;;5036733;28;20083;-73
2023/02/19 07:07:35;;;;;;;15.88;3.33;;;3.60;99.90;;;;;;5032869;28;20036;-72
2023/02/19 07:10:00;;;;;;;13.18;3.65;;;3.60;99.90;;;;;;5035417;28;20047;-73
2023/02/19 07:12:26;;;;;;;8.55;3.70;;;3.60;99.90;;;;;;5033736;28;20078;-73
2023/02/19 07:14:52;;;;;;;10.15;4.13;;;3.60;99.90;;;;;;5036133;28;20103;-72
2023/02/19 07:17:18;;;;;;;8.73;3.78;;;3.70;99.90;;;;;;5034715;28;20045;-72
2023/02/19 07:19:43;;;;;;;10.98;4.40;;;3.70;99.90;;;;;;5036902;28;20043;-73
2023/02/19 07:22:09;;;;;;;12.82;4.15;;;3.70;99.90;;;;;;5037569;28;20083;-73
2023/02/19 07:24:35;;;;;;;13.57;5.15;;;3.70;99.90;;;;;;5035935;28;20412;-73
2023/02/19 07:27:00;;;;;;;15.75;4.90;;;3.70;99.90;;;;;;5039274;28;20083;-76
2023/02/19 07:29:26;;;;;;;8.30;4.30;;;3.70;99.90;;;;;;5038005;28;20036;-73
2023/02/19 07:31:52;;;;;;;11.32;4.78;;;3.80;99.90;;;;;;5036458;28;20029;-73
2023/02/19 07:34:18;;;;;;;12.40;4.63;;;3.80;99.90;;;;;;5037432;28;20745;-73
2023/02/19 07:36:43;;;;;;;8.30;3.47;;;3.80;99.90;;;;;;5035341;28;20496;-73
2023/02/19 07:39:12;;;;;;;14.98;4.70;;;3.80;99.90;;;;;;5017291;28;20082;-72
2023/02/19 07:41:38;;;;;;;12.45;4.40;;;3.90;99.90;;;;;;5034720;28;20400;-73
2023/02/19 07:44:04;;;;;;;12.40;5.32;;;3.90;99.90;;;;;;5036360;28;21229;-72
2023/02/19 07:46:31;;;;;;;11.50;3.90;;;3.90;99.90;;;;;;5018957;28;20047;-73
2023/02/19 07:48:58;;;;;;;9.77;3.95;;;4.00;99.90;;;;;;5042178;28;20025;-73
2023/02/19 07:51:24;;;;;;;10.45;3.83;;;4.00;99.90;;;;;;5038866;28;20451;-73
2023/02/19 07:53:50;;;;;;;10.52;3.58;;;3.90;99.90;;;;;;5035729;28;20115;-73
2023/02/19 07:56:17;;;;;;;12.50;4.15;;;3.90;99.90;;;;;;5037212;28;20029;-73
2023/02/19 07:58:45;;;;;;;8.23;3.30;;;3.90;99.90;;;;;;5034589;28;20099;-73
2023/02/19 08:04:13;;;;;;;7.20;3.22;;;3.80;99.90;;;;;;5038862;28;20450;-73
2023/02/19 08:06:40;;;;;;;10.02;3.35;;;3.80;99.90;;;;;;5037292;28;20025;-73
2023/02/19 08:09:06;;;;;;;11.57;3.47;;;3.80;99.90;;;;;;5037949;28;20048;-73
2023/02/19 08:14:16;;;;;;;10.85;2.97;;;3.80;99.90;;;;;;5037103;28;20029;-73
2023/02/19 08:16:52;;;;;;;8.77;2.65;;;3.80;99.90;;;;;;5037506;28;20383;-73
2023/02/19 08:19:19;;;;;;;9.15;2.80;;;3.90;99.90;;;;;;5036734;28;20087;-73
2023/02/19 08:21:45;;;;;;;9.20;2.50;;;3.90;99.90;;;;;;5029866;28;20029;-73
2023/02/19 08:24:10;;;;;;;6.88;2.80;;;4.00;99.90;;;;;;5028822;28;20400;-73
2023/02/19 08:26:36;;;;;;;5.20;2.17;;;4.00;99.90;;;;;;5036380;28;20083;-73
2023/02/19 08:29:04;;;;;;;7.35;2.63;;;4.00;99.90;;;;;;5033916;28;20021;-75
2023/02/19 08:31:30;;;;;;;13.55;2.35;;;4.10;99.90;;;;;;5037030;28;20045;-73
2023/02/19 08:33:56;;;;;;;7.95;2.75;;;4.10;99.90;;;;;;5038642;28;20040;-73
2023/02/19 08:36:22;;;;;;;11.82;2.20;;;4.10;99.90;;;;;;5038354;28;20040;-73
2023/02/19 08:38:48;;;;;;;8.35;2.05;;;4.10;99.90;;;;;;5040019;28;20033;-72
2023/02/19 08:41:14;;;;;;;8.55;2.45;;;4.20;99.90;;;;;;5037067;28;20064;-72
2023/02/19 08:43:41;;;;;;;10.10;2.47;;;4.20;99.90;;;;;;5031362;28;20053;-73
2023/02/19 08:46:08;;;;;;;9.00;2.33;;;4.20;99.90;;;;;;5016969;28;20217;-72
2023/02/19 08:48:35;;;;;;;5.95;2.42;;;4.20;99.90;;;;;;5038115;28;20044;-73
2023/02/19 08:51:04;;;;;;;8.07;2.45;;;4.30;99.90;;;;;;5038995;28;20044;-73
2023/02/19 08:53:31;;;;;;;9.55;2.15;;;4.30;99.90;;;;;;5035809;28;20658;-73
2023/02/19 08:55:57;;;;;;;12.93;2.28;;;4.30;99.90;;;;;;5035103;28;20026;-73
2023/02/19 08:58:26;;;;;;;8.38;2.10;;;4.30;99.90;;;;;;5033260;28;20727;-73
2023/02/19 09:00:52;;;;;;;9.27;1.95;;;4.40;99.90;;;;;;5042175;28;20040;-73
2023/02/19 09:03:18;;;;;;;11.90;3.25;;;4.40;99.90;;;;;;5035562;28;20045;-74
2023/02/19 09:05:45;;;;;;;6.60;1.60;;;4.50;99.90;;;;;;5017964;28;20064;-72
2023/02/19 09:08:12;;;;;;;8.73;1.65;;;4.50;99.90;;;;;;5035718;28;20409;-72
2023/02/19 09:10:38;;;;;;;6.75;1.60;;;4.60;99.90;;;;;;5020420;28;20021;-72
2023/02/19 09:13:04;;;;;;;7.93;1.20;;;4.60;99.90;;;;;;5038169;28;20037;-74
2023/02/19 09:15:32;;;;;;;8.60;1.50;;;4.60;99.90;;;;;;5018593;28;20055;-72
2023/02/19 09:17:59;;;;;;;8.65;1.67;;;4.60;99.90;;;;;;5033296;28;20092;-72
2023/02/19 09:20:24;;;;;;;6.05;1.50;;;5.50;99.90;;;;;;5037376;28;20021;-74
2023/02/19 09:22:57;;;;;;;9.30;1.38;;;5.30;99.90;;;;;;5037670;28;20115;-74
2023/02/19 09:25:23;;;;;;;9.80;1.38;;;5.10;99.90;;;;;;5038270;28;20064;-75
2023/02/19 09:27:48;;;;;;;8.88;1.20;;;4.90;99.90;;;;;;5031698;28;20893;-75
2023/02/19 09:30:14;;;;;;;7.15;1.35;;;4.90;99.90;;;;;;5036289;28;20036;-74
2023/02/19 09:32:40;;;;;;;8.77;1.63;;;4.90;99.90;;;;;;5036735;28;20074;-73
2023/02/19 09:35:06;;;;;;;7.15;1.60;;;4.90;99.90;;;;;;5036918;28;21786;-72
2023/02/19 09:37:33;;;;;;;10.27;1.52;;;4.90;99.90;;;;;;5024546;28;20033;-73
2023/02/19 09:39:58;;;;;;;9.05;1.17;;;4.90;99.90;;;;;;5015386;28;20021;-73
2023/02/19 09:42:28;;;;;;;12.35;1.60;;;4.90;99.90;;;;;;5034669;28;20524;-73
2023/02/19 09:44:56;;;;;;;8.45;0.98;;;5.00;99.90;;;;;;5036764;28;20086;-73
2023/02/19 09:47:26;;;;;;;6.53;1.20;;;5.00;99.90;;;;;;5036920;28;20083;-72
2023/02/19 09:49:57;;;;;;;7.88;2.08;;;5.10;99.90;;;;;;5037889;28;20035;-72
2023/02/19 09:52:47;;;;;;;7.85;1.25;;;5.10;99.90;;;;;;5023507;28;20025;-73
2023/02/19 09:55:35;;;;;;;4.18;1.23;;;5.10;99.90;;;;;;5036743;28;20017;-72
2023/02/19 09:58:26;;;;;;;11.45;2.50;;;5.20;99.90;;;;;;5045014;28;20042;-72
2023/02/19 10:00:54;;;;;;;8.00;1.45;;;5.20;99.90;;;;;;5036352;28;20483;-72
2023/02/19 10:03:27;;;;;;;10.32;1.50;;;5.30;99.90;;;;;;5034690;28;20025;-72
2023/02/19 10:05:55;;;;;;;5.35;1.88;;;5.30;99.90;;;;;;5055886;28;20024;-72
2023/02/19 10:08:21;;;;;;;7.30;1.23;;;5.30;99.90;;;;;;5039951;28;20037;-72
2023/02/19 10:10:47;;;;;;;6.63;1.10;;;5.30;99.90;;;;;;5043072;28;20075;-72
2023/02/19 10:13:47;;;;;;;6.32;1.13;;;5.30;99.90;;;;;;5036689;28;20115;-74
2023/02/19 10:16:20;;;;;;;11.70;1.88;;;5.40;99.90;;;;;;5026435;28;20090;-73
2023/02/19 10:18:53;;;;;;;7.18;1.33;;;5.40;99.90;;;;;;5037401;28;20037;-73
2023/02/19 10:21:22;;;;;;;7.05;0.90;;;5.50;99.90;;;;;;5038251;28;20026;-72
2023/02/19 10:23:56;;;;;;;7.18;1.75;;;5.50;99.90;;;;;;5035008;28;20039;-74
2023/02/19 10:26:23;;;;;;;6.90;1.13;;;5.60;99.90;;;;;;5035342;28;20033;-74
2023/02/19 10:28:48;;;;;;;5.35;1.35;;;5.60;99.90;;;;;;5032072;28;20045;-74
2023/02/19 10:31:20;;;;;;;5.60;1.10;;;5.70;99.90;;;;;;5035795;28;20106;-73
2023/02/19 10:33:54;;;;;;;6.97;1.10;;;5.80;99.90;;;;;;5036791;28;20048;-73
2023/02/19 10:36:29;;;;;;;3.13;0.90;;;6.10;99.90;;;;;;5037458;28;20617;-73
2023/02/19 10:38:55;;;;;;;3.35;0.73;;;6.70;99.90;;;;;;5042889;28;20060;-74
2023/02/19 10:41:24;;;;;;;4.38;0.82;;;7.70;99.90;;;;;;5037757;28;20449;-73
2023/02/19 10:44:05;;;;;;;4.45;0.90;;;9.10;99.90;;;;;;5036359;28;20052;-73
2023/02/19 10:46:58;;;;;;;3.40;0.80;;;10.40;99.90;;;;;;5032222;28;20027;-73
2023/02/19 10:49:39;;;;;;;4.15;1.10;;;12.00;99.90;;;;;;5035347;28;20098;-73
2023/02/19 10:52:23;;;;;;;4.75;1.25;;;12.30;99.90;;;;;;5039407;28;20033;-74
2023/02/19 10:54:51;;;;;;;4.35;0.98;;;12.80;98.30;;;;;;5037821;28;20493;-74
2023/02/19 10:57:17;;;;;;;2.80;0.68;;;12.80;92.10;;;;;;5036140;28;20029;-74
2023/02/19 10:59:57;;;;;;;2.78;0.90;;;12.90;96.00;;;;;;5035498;28;20534;-74
2023/02/19 11:02:24;;;;;;;5.80;1.00;;;12.10;97.20;;;;;;5034821;28;21147;-74
2023/02/19 11:05:08;;;;;;;5.75;1.13;;;11.00;99.60;;;;;;5036906;28;20630;-75
2023/02/19 11:07:44;;;;;;;3.45;1.05;;;9.90;99.90;;;;;;5036379;28;20037;-73
2023/02/19 11:10:19;;;;;;;4.18;1.23;;;9.50;99.90;;;;;;5030827;28;20484;-71
2023/02/19 11:12:49;;;;;;;4.55;0.75;;;9.30;99.90;;;;;;5033994;28;20033;-72
2023/02/19 11:15:31;;;;;;;4.32;0.85;;;8.90;99.90;;;;;;5033903;28;20048;-71
2023/02/19 11:18:06;;;;;;;5.10;1.23;;;9.00;99.90;;;;;;5032658;28;20031;-72
2023/02/19 11:20:32;;;;;;;4.70;1.13;;;9.40;99.90;;;;;;5034644;28;21044;-73
2023/02/19 11:23:14;;;;;;;5.25;0.70;;;9.60;99.90;;;;;;5036304;28;20034;-72
2023/02/19 11:25:45;;;;;;;5.53;1.13;;;9.20;99.90;;;;;;5035068;28;20456;-72
2023/02/19 11:28:33;;;;;;;5.50;0.90;;;8.70;99.90;;;;;;5035104;28;20099;-72
2023/02/19 11:31:13;;;;;;;3.90;0.88;;;8.30;99.90;;;;;;5033955;28;20025;-72
2023/02/19 11:33:55;;;;;;;5.28;1.00;;;7.90;99.90;;;;;;5032526;28;20068;-72
2023/02/19 11:36:49;;;;;;;3.88;1.00;;;7.60;99.90;;;;;;5029205;28;20067;-73
2023/02/19 11:39:15;;;;;;;5.55;0.90;;;7.60;99.90;;;;;;4988030;28;20145;-72
2023/02/19 11:42:00;;;;;;;4.60;0.98;;;7.60;99.90;;;;;;4994011;28;20140;-72
2023/02/19 11:44:54;;;;;;;3.90;0.85;;;7.70;99.90;;;;;;4991868;28;20050;-70
2023/02/19 11:47:44;;;;;;;4.95;0.88;;;7.70;99.90;;;;;;4988240;28;20099;-71
2023/02/19 11:50:23;;;;;;;6.43;1.70;;;7.70;99.90;;;;;;4979693;28;20193;-72
2023/02/19 11:53:09;;;;;;;5.18;1.20;;;7.70;99.90;;;;;;4991863;28;20060;-72
2023/02/19 11:56:33;;;;;;;5.22;1.40;;;7.60;99.90;;;;;;4992125;28;20121;-73
2023/02/19 11:59:17;;;;;;;6.88;1.35;;;7.60;99.90;;;;;;4932877;28;20476;-72
2023/02/19 12:01:45;;;;;;;3.05;0.98;;;7.40;99.90;;;;;;4991428;28;20048;-69
2023/02/19 12:04:31;;;;;;;7.18;2.28;;;7.30;99.90;;;;;;4996376;28;20038;-73
2023/02/19 12:07:18;;;;;;;5.65;1.98;;;7.30;99.90;;;;;;4977946;28;20125;-74
2023/02/19 12:09:50;;;;;;;12.23;1.50;;;7.20;99.90;;;;;;4993321;28;20065;-72
2023/02/19 12:12:23;;;;;;;;;;;7.20;99.90;;;;;;4995528;28;20112;-73
2023/02/19 12:15:01;;;;;;;4.03;0.80;;;7.20;99.90;;;;;;4987982;28;20053;-73
2023/02/19 12:17:57;;;;;;;4.68;0.93;;;7.20;99.90;;;;;;5041426;28;20037;-73
2023/02/19 12:20:50;;;;;;;9.68;1.35;;;7.30;99.90;;;;;;5042652;28;20029;-72
2023/02/19 12:23:46;;;;;;;5.40;1.00;;;7.40;99.90;;;;;;5033396;28;20823;-73
2023/02/19 12:26:34;;;;;;;7.38;1.10;;;7.40;99.90;;;;;;5033167;28;20054;-72
2023/02/19 12:29:21;;;;;;;7.80;1.10;;;7.40;99.90;;;;;;5041831;28;20024;-73
2023/02/19 12:31:53;;;;;;;8.68;1.00;;;7.40;99.90;;;;;;5037110;28;20044;-71
2023/02/19 12:34:47;;;;;;;5.40;0.80;;;7.40;99.90;;;;;;5037833;28;20032;-70
2023/02/19 12:37:19;;;;;;;7.07;1.23;;;7.30;99.90;;;;;;5038946;28;20025;-73
2023/02/19 12:39:59;;;;;;;7.82;1.38;;;7.30;99.90;;;;;;5038113;28;20033;-73
2023/02/19 12:42:28;;;;;;;2.33;0.63;;;7.20;99.90;;;;;;5036887;28;20033;-72
2023/02/19 12:44:59;;;;;;;6.18;1.05;;;7.20;99.90;;;;;;5039809;28;20285;-73
2023/02/19 12:47:35;;;;;;;3.70;0.90;;;7.20;99.90;;;;;;5037288;28;20013;-73
2023/02/19 12:50:20;;;;;;;5.88;0.80;;;7.20;99.90;;;;;;5035141;28;20044;-73
2023/02/19 12:52:52;;;;;;;6.63;1.13;;;7.10;99.90;;;;;;5038610;28;21329;-73
2023/02/19 12:55:18;;;;;;;6.13;0.98;;;7.10;99.90;;;;;;5038053;28;20126;-72
2023/02/19 12:57:45;;;;;;;7.45;1.27;;;7.10;99.90;;;;;;5037201;28;20406;-72
2023/02/19 13:00:21;;;;;;;3.47;1.08;;;7.10;99.90;;;;;;5020799;28;20025;-72
2023/02/19 13:03:11;;;;;;;4.18;1.25;;;7.20;99.90;;;;;;5038291;28;20033;-71
2023/02/19 13:05:48;;;;;;;5.40;0.88;;;7.20;99.90;;;;;;5038521;28;20022;-73
2023/02/19 13:08:35;;;;;;;5.30;0.88;;;7.40;99.90;;;;;;5058677;28;20074;-72
2023/02/19 13:11:15;;;;;;;4.32;0.85;;;7.40;99.90;;;;;;5038419;28;20090;-73
2023/02/19 13:13:49;;;;;;;6.20;1.13;;;7.50;99.90;;;;;;5036600;28;20033;-73
2023/02/19 13:16:18;;;;;;;7.43;1.38;;;7.50;99.90;;;;;;5041019;28;20038;-73
2023/02/19 13:18:57;;;;;;;5.38;1.13;;;7.50;99.90;;;;;;5022282;28;20045;-74
2023/02/19 13:24:20;;;;;;;4.57;0.70;;;7.30;99.90;;;;;;5033747;28;20409;-71
2023/02/19 13:26:52;;;;;;;3.00;0.70;;;7.30;99.90;;;;;;5037001;28;20033;-71
2023/02/19 13:29:33;;;;;;;4.05;1.10;;;7.30;99.90;;;;;;5016560;28;20024;-74
2023/02/19 13:32:11;;;;;;;5.53;0.80;;;7.30;99.90;;;;;;5034896;28;20026;-75
2023/02/19 13:35:18;;;;;;;3.22;0.73;;;7.40;99.90;;;;;;5035537;28;20040;-75
2023/02/19 13:37:45;;;;;;;1.90;0.95;;;7.50;99.90;;;;;;5020586;28;20041;-72
2023/02/19 13:40:38;;;;;;;9.20;1.10;;;7.40;99.90;;;;;;5039420;28;20552;-75
2023/02/19 13:43:26;;;;;;;5.43;1.00;;;7.40;99.90;;;;;;5040303;28;20044;-76
2023/02/19 13:46:02;;;;;;;2.55;0.95;;;7.30;99.90;;;;;;5038562;28;20242;-77
2023/02/19 13:48:31;;;;;;;6.00;0.82;;;7.30;99.90;;;;;;5043435;28;20056;-75